sensor_id;sensor_type;location;lat;lon;timestamp;temperature;humidity
70051;SHT30;57391;51.306;22.680;2023-04-01T00:00:52;10.32;77.08
70051;SHT30;57391;51.306;22.680;2023-04-01T00:03:22;10.26;77.29
70051;SHT30;57391;51.306;22.680;2023-04-01T00:05:51;10.20;77.36
70051;SHT30;57391;51.306;22.680;2023-04-01T00:08:20;10.16;77.49
70051;SHT30;57391;51.306;22.680;2023-04-01T00:10:47;10.13;77.51
70051;SHT30;57391;51.306;22.680;2023-04-01T00:13:15;10.11;77.58
70051;SHT30;57391;51.306;22.680;2023-04-01T00:15:43;10.10;77.60
70051;SHT30;57391;51.306;22.680;2023-04-01T00:18:11;10.07;77.68
70051;SHT30;57391;51.306;22.680;2023-04-01T00:20:43;10.07;77.73
70051;SHT30;57391;51.306;22.680;2023-04-01T00:23:14;10.05;77.65
70051;SHT30;57391;51.306;22.680;2023-04-01T00:25:43;10.01;77.70
70051;SHT30;57391;51.306;22.680;2023-04-01T00:28:14;9.96;77.71
70051;SHT30;57391;51.306;22.680;2023-04-01T00:30:46;9.93;77.76
70051;SHT30;57391;51.306;22.680;2023-04-01T00:33:14;9.90;77.81
70051;SHT30;57391;51.306;22.680;2023-04-01T00:35:42;9.88;77.80
70051;SHT30;57391;51.306;22.680;2023-04-01T00:38:11;9.84;77.81
70051;SHT30;57391;51.306;22.680;2023-04-01T00:40:41;9.80;77.87
70051;SHT30;57391;51.306;22.680;2023-04-01T00:43:18;9.76;77.81
70051;SHT30;57391;51.306;22.680;2023-04-01T00:45:47;9.72;77.91
70051;SHT30;57391;51.306;22.680;2023-04-01T00:48:17;9.67;77.93
70051;SHT30;57391;51.306;22.680;2023-04-01T00:50:54;9.64;77.93
70051;SHT30;57391;51.306;22.680;2023-04-01T00:53:37;9.60;77.92
70051;SHT30;57391;51.306;22.680;2023-04-01T00:56:13;9.56;78.00
70051;SHT30;57391;51.306;22.680;2023-04-01T00:59:09;9.54;78.01
70051;SHT30;57391;51.306;22.680;2023-04-01T01:04:58;9.45;78.22
70051;SHT30;57391;51.306;22.680;2023-04-01T01:10:41;9.36;78.41
70051;SHT30;57391;51.306;22.680;2023-04-01T01:13:50;9.33;78.68
70051;SHT30;57391;51.306;22.680;2023-04-01T01:16:44;9.30;78.78
70051;SHT30;57391;51.306;22.680;2023-04-01T01:28:29;9.22;79.23
70051;SHT30;57391;51.306;22.680;2023-04-01T01:31:24;9.21;79.32
70051;SHT30;57391;51.306;22.680;2023-04-01T01:36:31;9.20;79.50
70051;SHT30;57391;51.306;22.680;2023-04-01T01:39:03;9.19;79.57
70051;SHT30;57391;51.306;22.680;2023-04-01T01:41:34;9.19;79.58
70051;SHT30;57391;51.306;22.680;2023-04-01T01:44:06;9.19;79.64
70051;SHT30;57391;51.306;22.680;2023-04-01T01:46:38;9.19;79.62
70051;SHT30;57391;51.306;22.680;2023-04-01T01:49:09;9.19;79.60
70051;SHT30;57391;51.306;22.680;2023-04-01T01:51:39;9.19;79.60
70051;SHT30;57391;51.306;22.680;2023-04-01T01:54:12;9.19;79.60
70051;SHT30;57391;51.306;22.680;2023-04-01T01:56:42;9.16;79.62
70051;SHT30;57391;51.306;22.680;2023-04-01T01:59:16;9.15;79.62
70051;SHT30;57391;51.306;22.680;2023-04-01T02:01:49;9.15;79.65
70051;SHT30;57391;51.306;22.680;2023-04-01T02:04:20;9.15;79.61
70051;SHT30;57391;51.306;22.680;2023-04-01T02:06:53;9.13;79.61
70051;SHT30;57391;51.306;22.680;2023-04-01T02:09:29;9.11;79.72
70051;SHT30;57391;51.306;22.680;2023-04-01T02:11:57;9.11;79.82
70051;SHT30;57391;51.306;22.680;2023-04-01T02:17:21;9.13;79.91
70051;SHT30;57391;51.306;22.680;2023-04-01T02:20:01;9.13;79.92
70051;SHT30;57391;51.306;22.680;2023-04-01T02:22:40;9.12;79.99
70051;SHT30;57391;51.306;22.680;2023-04-01T02:25:23;9.13;79.99
70051;SHT30;57391;51.306;22.680;2023-04-01T02:27:56;9.14;80.04
70051;SHT30;57391;51.306;22.680;2023-04-01T02:30:29;9.15;80.02
70051;SHT30;57391;51.306;22.680;2023-04-01T02:32:59;9.17;80.00
70051;SHT30;57391;51.306;22.680;2023-04-01T02:35:30;9.18;80.00
70051;SHT30;57391;51.306;22.680;2023-04-01T02:38:02;9.19;79.98
70051;SHT30;57391;51.306;22.680;2023-04-01T02:40:40;9.22;79.96
70051;SHT30;57391;51.306;22.680;2023-04-01T02:43:14;9.24;79.92
70051;SHT30;57391;51.306;22.680;2023-04-01T02:45:43;9.26;79.92
70051;SHT30;57391;51.306;22.680;2023-04-01T02:48:10;9.29;79.90
70051;SHT30;57391;51.306;22.680;2023-04-01T02:50:37;9.32;79.81
70051;SHT30;57391;51.306;22.680;2023-04-01T02:53:04;9.35;79.77
70051;SHT30;57391;51.306;22.680;2023-04-01T02:55:33;9.37;79.71
70051;SHT30;57391;51.306;22.680;2023-04-01T02:58:01;9.36;79.73
70051;SHT30;57391;51.306;22.680;2023-04-01T03:00:29;9.38;79.78
70051;SHT30;57391;51.306;22.680;2023-04-01T03:02:56;9.39;79.78
70051;SHT30;57391;51.306;22.680;2023-04-01T03:05:24;9.38;79.79
70051;SHT30;57391;51.306;22.680;2023-04-01T03:07:51;9.39;79.73
70051;SHT30;57391;51.306;22.680;2023-04-01T03:10:20;9.40;79.70
70051;SHT30;57391;51.306;22.680;2023-04-01T03:12:47;9.39;79.71
70051;SHT30;57391;51.306;22.680;2023-04-01T03:15:15;9.40;79.70
70051;SHT30;57391;51.306;22.680;2023-04-01T03:17:42;9.39;79.70
70051;SHT30;57391;51.306;22.680;2023-04-01T03:20:10;9.40;79.70
70051;SHT30;57391;51.306;22.680;2023-04-01T03:22:38;9.42;79.69
70051;SHT30;57391;51.306;22.680;2023-04-01T03:25:06;9.43;79.73
70051;SHT30;57391;51.306;22.680;2023-04-01T03:27:35;9.44;79.72
70051;SHT30;57391;51.306;22.680;2023-04-01T03:30:03;9.44;79.71
70051;SHT30;57391;51.306;22.680;2023-04-01T03:32:34;9.43;79.73
70051;SHT30;57391;51.306;22.680;2023-04-01T03:35:01;9.45;79.79
70051;SHT30;57391;51.306;22.680;2023-04-01T03:37:28;9.44;79.81
70051;SHT30;57391;51.306;22.680;2023-04-01T03:39:56;9.44;79.84
70051;SHT30;57391;51.306;22.680;2023-04-01T03:42:23;9.43;79.89
70051;SHT30;57391;51.306;22.680;2023-04-01T03:44:50;9.42;79.91
70051;SHT30;57391;51.306;22.680;2023-04-01T03:47:17;9.41;80.01
70051;SHT30;57391;51.306;22.680;2023-04-01T03:49:44;9.40;80.12
70051;SHT30;57391;51.306;22.680;2023-04-01T03:52:12;9.40;80.13
70051;SHT30;57391;51.306;22.680;2023-04-01T03:54:39;9.40;80.10
70051;SHT30;57391;51.306;22.680;2023-04-01T03:57:06;9.39;80.10
70051;SHT30;57391;51.306;22.680;2023-04-01T03:59:34;9.38;80.04
70051;SHT30;57391;51.306;22.680;2023-04-01T04:02:02;9.35;80.09
70051;SHT30;57391;51.306;22.680;2023-04-01T04:04:30;9.34;80.20
70051;SHT30;57391;51.306;22.680;2023-04-01T04:06:58;9.33;80.24
70051;SHT30;57391;51.306;22.680;2023-04-01T04:09:26;9.32;80.46
70051;SHT30;57391;51.306;22.680;2023-04-01T04:11:54;9.31;80.63
70051;SHT30;57391;51.306;22.680;2023-04-01T04:14:22;9.29;80.73
70051;SHT30;57391;51.306;22.680;2023-04-01T04:16:50;9.28;80.80
70051;SHT30;57391;51.306;22.680;2023-04-01T04:19:17;9.28;80.92
70051;SHT30;57391;51.306;22.680;2023-04-01T04:21:45;9.28;80.99
70051;SHT30;57391;51.306;22.680;2023-04-01T04:24:12;9.27;80.98
70051;SHT30;57391;51.306;22.680;2023-04-01T04:26:59;9.27;81.00
70051;SHT30;57391;51.306;22.680;2023-04-01T04:29:26;9.27;81.03
70051;SHT30;57391;51.306;22.680;2023-04-01T04:31:53;9.27;81.05
70051;SHT30;57391;51.306;22.680;2023-04-01T04:34:21;9.28;81.08
70051;SHT30;57391;51.306;22.680;2023-04-01T04:36:49;9.30;81.09
70051;SHT30;57391;51.306;22.680;2023-04-01T04:39:17;9.30;81.10
70051;SHT30;57391;51.306;22.680;2023-04-01T04:41:45;9.31;81.10
70051;SHT30;57391;51.306;22.680;2023-04-01T04:44:13;9.32;81.10
70051;SHT30;57391;51.306;22.680;2023-04-01T04:46:40;9.32;81.05
70051;SHT30;57391;51.306;22.680;2023-04-01T04:49:15;9.34;81.09
70051;SHT30;57391;51.306;22.680;2023-04-01T04:51:43;9.37;81.04
70051;SHT30;57391;51.306;22.680;2023-04-01T04:54:11;9.40;81.00
70051;SHT30;57391;51.306;22.680;2023-04-01T04:56:46;9.40;81.02
70051;SHT30;57391;51.306;22.680;2023-04-01T04:59:13;9.44;81.02
70051;SHT30;57391;51.306;22.680;2023-04-01T05:01:45;9.45;81.01
70051;SHT30;57391;51.306;22.680;2023-04-01T05:04:12;9.45;81.05
70051;SHT30;57391;51.306;22.680;2023-04-01T05:06:39;9.47;81.09
70051;SHT30;57391;51.306;22.680;2023-04-01T05:09:07;9.49;81.08
70051;SHT30;57391;51.306;22.680;2023-04-01T05:11:34;9.50;81.10
70051;SHT30;57391;51.306;22.680;2023-04-01T05:14:01;9.51;81.14
70051;SHT30;57391;51.306;22.680;2023-04-01T05:16:28;9.53;81.15
70051;SHT30;57391;51.306;22.680;2023-04-01T05:18:58;9.54;81.18
70051;SHT30;57391;51.306;22.680;2023-04-01T05:21:25;9.57;81.28
70051;SHT30;57391;51.306;22.680;2023-04-01T05:23:53;9.57;81.38
70051;SHT30;57391;51.306;22.680;2023-04-01T05:26:20;9.59;81.37
70051;SHT30;57391;51.306;22.680;2023-04-01T05:28:47;9.60;81.42
70051;SHT30;57391;51.306;22.680;2023-04-01T05:31:15;9.63;81.52
70051;SHT30;57391;51.306;22.680;2023-04-01T05:33:44;9.65;81.60
70051;SHT30;57391;51.306;22.680;2023-04-01T05:36:13;9.69;81.51
70051;SHT30;57391;51.306;22.680;2023-04-01T05:38:43;9.71;81.45
70051;SHT30;57391;51.306;22.680;2023-04-01T05:41:12;9.74;81.37
70051;SHT30;57391;51.306;22.680;2023-04-01T05:43:44;9.79;81.26
70051;SHT30;57391;51.306;22.680;2023-04-01T05:46:34;9.82;81.32
70051;SHT30;57391;51.306;22.680;2023-04-01T05:49:36;9.85;81.27
70051;SHT30;57391;51.306;22.680;2023-04-01T05:52:04;9.88;81.39
70051;SHT30;57391;51.306;22.680;2023-04-01T05:54:32;9.91;81.24
70051;SHT30;57391;51.306;22.680;2023-04-01T05:57:10;9.94;81.25
70051;SHT30;57391;51.306;22.680;2023-04-01T05:59:37;9.96;81.32
70051;SHT30;57391;51.306;22.680;2023-04-01T06:02:04;9.98;81.20
70051;SHT30;57391;51.306;22.680;2023-04-01T06:04:32;9.99;81.09
70051;SHT30;57391;51.306;22.680;2023-04-01T06:07:10;10.01;81.10
70051;SHT30;57391;51.306;22.680;2023-04-01T06:09:43;10.03;81.22
70051;SHT30;57391;51.306;22.680;2023-04-01T06:12:17;10.05;81.21
70051;SHT30;57391;51.306;22.680;2023-04-01T06:21:12;10.10;81.03
70051;SHT30;57391;51.306;22.680;2023-04-01T06:27:41;10.15;80.88
70051;SHT30;57391;51.306;22.680;2023-04-01T06:30:43;10.16;80.94
70051;SHT30;57391;51.306;22.680;2023-04-01T06:33:36;10.19;80.88
70051;SHT30;57391;51.306;22.680;2023-04-01T06:36:42;10.22;80.86
70051;SHT30;57391;51.306;22.680;2023-04-01T06:39:28;10.28;80.74
70051;SHT30;57391;51.306;22.680;2023-04-01T06:55:46;10.47;80.28
70051;SHT30;57391;51.306;22.680;2023-04-01T06:58:50;10.51;80.09
70051;SHT30;57391;51.306;22.680;2023-04-01T07:01:25;10.56;80.28
70051;SHT30;57391;51.306;22.680;2023-04-01T07:04:09;10.69;80.13
70051;SHT30;57391;51.306;22.680;2023-04-01T07:06:53;10.94;80.80
70051;SHT30;57391;51.306;22.680;2023-04-01T07:09:26;11.22;79.87
70051;SHT30;57391;51.306;22.680;2023-04-01T07:15:41;11.87;79.07
70051;SHT30;57391;51.306;22.680;2023-04-01T07:18:24;12.05;78.45
70051;SHT30;57391;51.306;22.680;2023-04-01T07:21:01;12.24;78.10
70051;SHT30;57391;51.306;22.680;2023-04-01T07:23:36;12.37;77.18
70051;SHT30;57391;51.306;22.680;2023-04-01T07:26:43;12.45;76.68
70051;SHT30;57391;51.306;22.680;2023-04-01T07:29:13;12.46;76.11
70051;SHT30;57391;51.306;22.680;2023-04-01T07:37:19;12.61;76.32
70051;SHT30;57391;51.306;22.680;2023-04-01T07:40:12;12.77;75.77
70051;SHT30;57391;51.306;22.680;2023-04-01T07:45:39;13.09;74.61
70051;SHT30;57391;51.306;22.680;2023-04-01T07:56:19;13.81;73.13
70051;SHT30;57391;51.306;22.680;2023-04-01T08:14:42;14.54;69.86
70051;SHT30;57391;51.306;22.680;2023-04-01T08:23:22;14.90;68.33
70051;SHT30;57391;51.306;22.680;2023-04-01T08:26:23;14.95;67.08
70051;SHT30;57391;51.306;22.680;2023-04-01T08:29:13;14.89;66.55
70051;SHT30;57391;51.306;22.680;2023-04-01T08:31:53;14.83;66.82
70051;SHT30;57391;51.306;22.680;2023-04-01T08:34:39;14.80;66.59
70051;SHT30;57391;51.306;22.680;2023-04-01T08:37:19;14.87;67.19
70051;SHT30;57391;51.306;22.680;2023-04-01T08:39:58;14.95;66.44
70051;SHT30;57391;51.306;22.680;2023-04-01T08:43:09;15.10;66.71
70051;SHT30;57391;51.306;22.680;2023-04-01T08:48:40;15.51;65.34
70051;SHT30;57391;51.306;22.680;2023-04-01T09:00:13;15.96;63.00
70051;SHT30;57391;51.306;22.680;2023-04-01T09:48:29;16.41;59.10
70051;SHT30;57391;51.306;22.680;2023-04-01T09:54:24;16.51;57.29
70051;SHT30;57391;51.306;22.680;2023-04-01T10:01:06;16.12;57.76
70051;SHT30;57391;51.306;22.680;2023-04-01T10:25:05;15.53;60.06
70051;SHT30;57391;51.306;22.680;2023-04-01T11:05:40;15.50;58.66
70051;SHT30;57391;51.306;22.680;2023-04-01T11:20:35;15.35;58.78
70051;SHT30;57391;51.306;22.680;2023-04-01T11:53:59;15.51;58.92
70051;SHT30;57391;51.306;22.680;2023-04-01T11:56:56;15.57;59.24
70051;SHT30;57391;51.306;22.680;2023-04-01T12:05:23;15.56;59.40
70051;SHT30;57391;51.306;22.680;2023-04-01T12:08:06;15.54;59.58
70051;SHT30;57391;51.306;22.680;2023-04-01T12:10:56;15.49;58.86
70051;SHT30;57391;51.306;22.680;2023-04-01T12:13:36;15.45;58.83
70051;SHT30;57391;51.306;22.680;2023-04-01T12:24:57;15.26;58.56
70051;SHT30;57391;51.306;22.680;2023-04-01T13:09:13;13.77;69.39
70051;SHT30;57391;51.306;22.680;2023-04-01T13:15:26;14.36;66.32
70051;SHT30;57391;51.306;22.680;2023-04-01T13:26:43;14.43;63.96
70051;SHT30;57391;51.306;22.680;2023-04-01T13:29:40;14.37;63.66
70051;SHT30;57391;51.306;22.680;2023-04-01T13:40:51;14.48;62.17
70051;SHT30;57391;51.306;22.680;2023-04-01T13:43:37;14.52;62.18
70051;SHT30;57391;51.306;22.680;2023-04-01T13:46:16;14.54;62.16
70051;SHT30;57391;51.306;22.680;2023-04-01T13:49:56;14.52;61.32
70051;SHT30;57391;51.306;22.680;2023-04-01T13:58:23;14.44;60.92
70051;SHT30;57391;51.306;22.680;2023-04-01T14:01:32;14.46;60.39
70051;SHT30;57391;51.306;22.680;2023-04-01T14:04:10;14.44;60.13
70051;SHT30;57391;51.306;22.680;2023-04-01T14:09:51;14.41;60.65
70051;SHT30;57391;51.306;22.680;2023-04-01T14:16:05;14.39;60.30
70051;SHT30;57391;51.306;22.680;2023-04-01T14:34:01;13.43;65.95
70051;SHT30;57391;51.306;22.680;2023-04-01T14:42:55;13.00;67.63
70051;SHT30;57391;51.306;22.680;2023-04-01T14:51:41;12.80;68.88
70051;SHT30;57391;51.306;22.680;2023-04-01T14:54:12;12.79;69.20
70051;SHT30;57391;51.306;22.680;2023-04-01T14:57:04;12.76;69.38
70051;SHT30;57391;51.306;22.680;2023-04-01T15:02:41;12.74;69.59
70051;SHT30;57391;51.306;22.680;2023-04-01T15:14:47;12.48;71.94
70051;SHT30;57391;51.306;22.680;2023-04-01T15:17:13;12.45;72.20
70051;SHT30;57391;51.306;22.680;2023-04-01T15:20:17;12.41;72.53
70051;SHT30;57391;51.306;22.680;2023-04-01T15:26:27;12.39;73.02
70051;SHT30;57391;51.306;22.680;2023-04-01T15:32:37;12.38;72.71
70051;SHT30;57391;51.306;22.680;2023-04-01T15:41:28;12.33;72.73
70051;SHT30;57391;51.306;22.680;2023-04-01T15:44:02;12.35;72.74
70051;SHT30;57391;51.306;22.680;2023-04-01T15:46:41;12.36;72.79
70051;SHT30;57391;51.306;22.680;2023-04-01T16:09:52;12.26;72.71
70051;SHT30;57391;51.306;22.680;2023-04-01T16:12:51;12.23;72.86
70051;SHT30;57391;51.306;22.680;2023-04-01T16:21:46;12.09;74.63
70051;SHT30;57391;51.306;22.680;2023-04-01T16:24:24;12.05;75.00
70051;SHT30;57391;51.306;22.680;2023-04-01T16:39:11;11.82;76.09
70051;SHT30;57391;51.306;22.680;2023-04-01T16:45:17;11.76;76.27
70051;SHT30;57391;51.306;22.680;2023-04-01T16:48:14;11.70;76.23
70051;SHT30;57391;51.306;22.680;2023-04-01T16:50:54;11.67;76.30
70051;SHT30;57391;51.306;22.680;2023-04-01T16:56:11;11.63;76.57
70051;SHT30;57391;51.306;22.680;2023-04-01T17:04:48;11.58;77.12
70051;SHT30;57391;51.306;22.680;2023-04-01T17:13:34;11.49;77.42
70051;SHT30;57391;51.306;22.680;2023-04-01T17:25:09;11.41;77.70
70051;SHT30;57391;51.306;22.680;2023-04-01T17:43:10;11.29;78.11
70051;SHT30;57391;51.306;22.680;2023-04-01T17:45:57;11.28;78.12
70051;SHT30;57391;51.306;22.680;2023-04-01T17:48:52;11.28;78.04
70051;SHT30;57391;51.306;22.680;2023-04-01T17:52:00;11.26;78.01
70051;SHT30;57391;51.306;22.680;2023-04-01T18:14:26;11.08;78.29
70051;SHT30;57391;51.306;22.680;2023-04-01T18:21:08;11.00;78.30
70051;SHT30;57391;51.306;22.680;2023-04-01T18:26:27;10.96;78.52
70051;SHT30;57391;51.306;22.680;2023-04-01T18:35:27;10.88;79.12
70051;SHT30;57391;51.306;22.680;2023-04-01T18:38:31;10.86;79.32
70051;SHT30;57391;51.306;22.680;2023-04-01T18:56:32;10.76;79.70
70051;SHT30;57391;51.306;22.680;2023-04-01T19:07:47;10.73;79.80
70051;SHT30;57391;51.306;22.680;2023-04-01T19:10:31;10.71;79.80
70051;SHT30;57391;51.306;22.680;2023-04-01T19:16:47;10.64;79.96
70051;SHT30;57391;51.306;22.680;2023-04-01T19:34:10;10.58;80.33
70051;SHT30;57391;51.306;22.680;2023-04-01T19:55:48;10.55;80.68
70051;SHT30;57391;51.306;22.680;2023-04-01T20:00:59;10.53;80.77
70051;SHT30;57391;51.306;22.680;2023-04-01T20:08:48;10.47;80.95
70051;SHT30;57391;51.306;22.680;2023-04-01T20:11:44;10.44;81.12
70051;SHT30;57391;51.306;22.680;2023-04-01T20:14:27;10.41;81.27
70051;SHT30;57391;51.306;22.680;2023-04-01T20:31:03;10.33;82.00
70051;SHT30;57391;51.306;22.680;2023-04-01T20:57:38;10.27;82.24
70051;SHT30;57391;51.306;22.680;2023-04-01T21:03:52;10.26;82.28
70051;SHT30;57391;51.306;22.680;2023-04-01T21:07:38;10.26;82.31
70051;SHT30;57391;51.306;22.680;2023-04-01T21:10:11;10.27;82.30
70051;SHT30;57391;51.306;22.680;2023-04-01T21:18:53;10.30;82.53
70051;SHT30;57391;51.306;22.680;2023-04-01T21:30:36;10.31;82.69
70051;SHT30;57391;51.306;22.680;2023-04-01T21:33:23;10.31;82.58
70051;SHT30;57391;51.306;22.680;2023-04-01T21:43:00;10.33;82.68
70051;SHT30;57391;51.306;22.680;2023-04-01T22:06:03;10.38;82.86
70051;SHT30;57391;51.306;22.680;2023-04-01T22:08:46;10.35;82.89
70051;SHT30;57391;51.306;22.680;2023-04-01T22:11:48;10.30;82.93
70051;SHT30;57391;51.306;22.680;2023-04-01T22:14:32;10.22;83.02
70051;SHT30;57391;51.306;22.680;2023-04-01T22:17:25;10.16;83.14
70051;SHT30;57391;51.306;22.680;2023-04-01T22:20:31;10.09;83.20
70051;SHT30;57391;51.306;22.680;2023-04-01T22:23:34;10.01;83.35
70051;SHT30;57391;51.306;22.680;2023-04-01T22:32:40;9.74;83.46
70051;SHT30;57391;51.306;22.680;2023-04-01T22:44:02;9.42;83.96
70051;SHT30;57391;51.306;22.680;2023-04-01T22:46:33;9.39;84.04
70051;SHT30;57391;51.306;22.680;2023-04-01T22:49:11;9.36;84.05
70051;SHT30;57391;51.306;22.680;2023-04-01T22:51:57;9.32;84.02
70051;SHT30;57391;51.306;22.680;2023-04-01T22:54:58;9.26;83.95
70051;SHT30;57391;51.306;22.680;2023-04-01T22:58:12;9.20;84.00
70051;SHT30;57391;51.306;22.680;2023-04-01T23:00:56;9.15;83.96
70051;SHT30;57391;51.306;22.680;2023-04-01T23:03:57;9.09;84.01
70051;SHT30;57391;51.306;22.680;2023-04-01T23:06:31;9.04;83.92
70051;SHT30;57391;51.306;22.680;2023-04-01T23:09:30;8.98;83.89
70051;SHT30;57391;51.306;22.680;2023-04-01T23:12:10;8.95;83.86
70051;SHT30;57391;51.306;22.680;2023-04-01T23:14:51;8.93;83.86
70051;SHT30;57391;51.306;22.680;2023-04-01T23:28:54;8.87;84.15
70051;SHT30;57391;51.306;22.680;2023-04-01T23:31:33;8.86;84.19
70051;SHT30;57391;51.306;22.680;2023-04-01T23:34:02;8.84;84.14
70051;SHT30;57391;51.306;22.680;2023-04-01T23:36:40;8.79;84.11
70051;SHT30;57391;51.306;22.680;2023-04-01T23:42:07;8.69;84.19
70051;SHT30;57391;51.306;22.680;2023-04-01T23:44:46;8.65;84.18
70051;SHT30;57391;51.306;22.680;2023-04-01T23:47:18;8.63;84.18
70051;SHT30;57391;51.306;22.680;2023-04-01T23:49:51;8.59;83.99
70051;SHT30;57391;51.306;22.680;2023-04-01T23:52:34;8.57;83.90
70051;SHT30;57391;51.306;22.680;2023-04-01T23:57:38;8.57;83.86
